AIC2739 VOBL-VOMM
Flight info
| Callsign | AIC2739 |
|---|---|
| Flight time | N/A |
| Altitude | 17000 |
| Route | TULNA8A/09L TULNA W116 MMV |
| Aircraft | A20N/M-SDE2E3FGHIRWXY/LB1 |
Departure
| Time | N/A |
|---|---|
| Airport | Kempegowda International Airport Bengaluru (VOBL) |
Arrival
| Time | 2026-05-07 14:49 |
|---|---|
| Airport | Chennai International Airport (VOMM) |
| Time | Latitude | Longitude | Altitude | Speed | Heading |
|---|---|---|---|---|---|
| 2026-05-07 14:38 | 13.20360 | 80.15486 | 3578 ft | 230 kts | 246° |
| 2026-05-07 14:38 | 13.19769 | 80.14024 | 3513 ft | 222 kts | 245° |
| 2026-05-07 14:38 | 13.19129 | 80.12615 | 3424 ft | 214 kts | 244° |
| 2026-05-07 14:39 | 13.18514 | 80.11280 | 3178 ft | 218 kts | 243° |
| 2026-05-07 14:39 | 13.17878 | 80.09895 | 2808 ft | 226 kts | 244° |
| 2026-05-07 14:39 | 13.17205 | 80.08403 | 2565 ft | 227 kts | 244° |
| 2026-05-07 14:39 | 13.16391 | 80.07025 | 2313 ft | 226 kts | 225° |
| 2026-05-07 14:40 | 13.15207 | 80.05987 | 2148 ft | 221 kts | 212° |
| 2026-05-07 14:40 | 13.13909 | 80.05098 | 2103 ft | 225 kts | 210° |
| 2026-05-07 14:40 | 13.13493 | 80.04816 | 2097 ft | 222 kts | 211° |
| 2026-05-07 14:40 | 13.12087 | 80.03902 | 2108 ft | 198 kts | 202° |
| 2026-05-07 14:41 | 13.10874 | 80.03462 | 2091 ft | 180 kts | 183° |
| 2026-05-07 14:41 | 13.09607 | 80.03457 | 2091 ft | 180 kts | 175° |
| 2026-05-07 14:41 | 13.08790 | 80.03480 | 2100 ft | 179 kts | 175° |
| 2026-05-07 14:41 | 13.07104 | 80.03509 | 2103 ft | 183 kts | 181° |
| 2026-05-07 14:42 | 13.05903 | 80.03053 | 2097 ft | 185 kts | 208° |
| 2026-05-07 14:42 | 13.05213 | 80.02528 | 2095 ft | 187 kts | 218° |
| 2026-05-07 14:42 | 13.04272 | 80.01585 | 2099 ft | 192 kts | 224° |
| 2026-05-07 14:42 | 13.03005 | 80.00349 | 2095 ft | 189 kts | 210° |
| 2026-05-07 14:43 | 13.01878 | 79.99690 | 2097 ft | 183 kts | 201° |
| 2026-05-07 14:43 | 13.01088 | 79.99398 | 2100 ft | 183 kts | 194° |
| 2026-05-07 14:43 | 12.99856 | 79.99005 | 2094 ft | 186 kts | 194° |
| 2026-05-07 14:43 | 12.98633 | 79.98625 | 2100 ft | 181 kts | 193° |
| 2026-05-07 14:44 | 12.97408 | 79.98241 | 2117 ft | 186 kts | 193° |
| 2026-05-07 14:44 | 12.96167 | 79.97844 | 2269 ft | 183 kts | 194° |
| 2026-05-07 14:44 | 12.94948 | 79.97472 | 2298 ft | 181 kts | 189° |
| 2026-05-07 14:44 | 12.93714 | 79.97271 | 2301 ft | 181 kts | 175° |
| 2026-05-07 14:45 | 12.92687 | 79.97776 | 2299 ft | 159 kts | 123° |
| 2026-05-07 14:45 | 12.92494 | 79.98854 | 2314 ft | 158 kts | 83° |
| 2026-05-07 14:45 | 12.92761 | 79.99941 | 2308 ft | 161 kts | 73° |
| 2026-05-07 14:45 | 12.93135 | 80.01018 | 2307 ft | 160 kts | 71° |
| 2026-05-07 14:46 | 12.93521 | 80.02089 | 2303 ft | 157 kts | 70° |
| 2026-05-07 14:46 | 12.93901 | 80.03114 | 2180 ft | 155 kts | 71° |
| 2026-05-07 14:46 | 12.94283 | 80.04151 | 2114 ft | 158 kts | 70° |
| 2026-05-07 14:46 | 12.94683 | 80.05219 | 1971 ft | 156 kts | 70° |
| 2026-05-07 14:47 | 12.95066 | 80.06258 | 1794 ft | 157 kts | 70° |
| 2026-05-07 14:47 | 12.95455 | 80.07301 | 1619 ft | 154 kts | 70° |
| 2026-05-07 14:47 | 12.95841 | 80.08338 | 1400 ft | 156 kts | 70° |
| 2026-05-07 14:47 | 12.96230 | 80.09387 | 1221 ft | 154 kts | 71° |
| 2026-05-07 14:48 | 12.96610 | 80.10411 | 1018 ft | 157 kts | 70° |
| 2026-05-07 14:48 | 12.96996 | 80.11440 | 821 ft | 156 kts | 71° |
| 2026-05-07 14:48 | 12.97382 | 80.12466 | 751 ft | 154 kts | 70° |
| 2026-05-07 14:48 | 12.97769 | 80.13518 | 524 ft | 155 kts | 72° |
| 2026-05-07 14:49 | 12.98134 | 80.14555 | 305 ft | 160 kts | 70° |
| 2026-05-07 14:49 | 12.98514 | 80.15587 | 103 ft | 154 kts | 69° |
| 2026-05-07 14:49 | 12.98839 | 80.16402 | 50 ft | 60 kts | 69° |
| 2026-05-07 14:49 | 12.98914 | 80.16630 | 52 ft | 33 kts | 68° |
| 2026-05-07 14:50 | 12.99003 | 80.16859 | 53 ft | 37 kts | 68° |
| 2026-05-07 14:50 | 12.99104 | 80.17129 | 49 ft | 44 kts | 69° |
| 2026-05-07 14:50 | 12.99090 | 80.17199 | 53 ft | 8 kts | 173° |
| 2026-05-07 14:50 | 12.99008 | 80.17230 | 54 ft | 17 kts | 155° |
| 2026-05-07 14:51 | 12.98927 | 80.17174 | 51 ft | 20 kts | 251° |
| 2026-05-07 14:51 | 12.98857 | 80.16994 | 50 ft | 34 kts | 248° |
| 2026-05-07 14:51 | 12.98757 | 80.16736 | 49 ft | 28 kts | 244° |
| 2026-05-07 14:51 | 12.98736 | 80.16721 | 53 ft | 5 kts | 176° |
| 2026-05-07 14:52 | 12.98668 | 80.16757 | 55 ft | 18 kts | 156° |
| 2026-05-07 14:52 | 12.98608 | 80.16765 | 53 ft | 5 kts | 219° |
| 2026-05-07 14:52 | 12.98565 | 80.16731 | 50 ft | 9 kts | 191° |
| 2026-05-07 14:52 | 12.98528 | 80.16736 | 55 ft | 0 kts | 157° |
| 2026-05-07 14:53 | 12.98516 | 80.16742 | 54 ft | 0 kts | 157° |